createdAt,value
2023-11-18T00:00:12.351Z,40.22
2023-11-18T00:02:40.234Z,40.25
2023-11-18T00:05:08.710Z,40.36
2023-11-18T00:07:36.484Z,40.41
2023-11-18T00:10:05.726Z,40.56
2023-11-18T00:12:36.587Z,40.78
2023-11-18T00:15:06.348Z,40.70
2023-11-18T00:17:33.890Z,40.44
2023-11-18T00:20:01.466Z,40.45
2023-11-18T00:22:29.285Z,40.37
2023-11-18T00:24:58.171Z,40.49
2023-11-18T00:27:26.193Z,40.63
2023-11-18T00:29:54.308Z,40.80
2023-11-18T00:32:21.986Z,40.77
2023-11-18T00:34:49.646Z,40.62
2023-11-18T00:37:17.031Z,40.68
2023-11-18T00:39:44.355Z,40.73
2023-11-18T00:42:12.078Z,40.76
2023-11-18T00:44:39.497Z,40.78
2023-11-18T00:47:07.190Z,40.66
2023-11-18T00:49:35.284Z,40.77
2023-11-18T00:52:03.109Z,40.85
2023-11-18T00:54:30.444Z,40.81
2023-11-18T00:56:57.921Z,40.88
2023-11-18T00:59:25.417Z,40.90
2023-11-18T01:01:52.759Z,40.75
2023-11-18T01:04:21.160Z,41.03
2023-11-18T01:06:49.518Z,40.89
2023-11-18T01:09:17.447Z,40.80
2023-11-18T01:12:07.087Z,40.88
2023-11-18T01:14:32.725Z,40.87
2023-11-18T01:17:00.843Z,40.78
2023-11-18T01:19:28.212Z,40.98
2023-11-18T01:21:56.742Z,40.90
2023-11-18T01:24:24.106Z,41.02
2023-11-18T01:26:51.748Z,40.86
2023-11-18T01:29:19.168Z,41.01
2023-11-18T01:31:52.183Z,40.91
2023-11-18T01:34:23.339Z,40.93
2023-11-18T01:36:51.324Z,40.90
2023-11-18T01:39:19.574Z,40.93
2023-11-18T01:41:47.154Z,41.19
2023-11-18T01:44:18.913Z,41.07
2023-11-18T01:46:47.234Z,40.97
2023-11-18T01:49:15.763Z,40.93
2023-11-18T01:51:46.552Z,41.11
2023-11-18T01:54:17.287Z,41.14
2023-11-18T01:56:48.598Z,41.07
2023-11-18T01:59:20.052Z,40.83
2023-11-18T02:01:55.326Z,41.01
2023-11-18T02:04:23.202Z,40.96
2023-11-18T02:06:51.497Z,40.99
2023-11-18T02:09:20.419Z,40.96
2023-11-18T02:12:00.561Z,40.94
2023-11-18T02:14:31.318Z,41.10
2023-11-18T02:17:01.723Z,41.15
2023-11-18T02:19:31.330Z,41.10
2023-11-18T02:21:59.458Z,40.90
2023-11-18T02:24:32.272Z,41.09
2023-11-18T02:27:00.560Z,41.07
2023-11-18T02:29:36.831Z,40.91
2023-11-18T02:32:39.574Z,41.23
2023-11-18T02:35:14.661Z,41.00
2023-11-18T02:37:46.268Z,41.13
2023-11-18T02:40:36.729Z,41.14
2023-11-18T02:43:10.390Z,40.99
2023-11-18T02:45:38.498Z,41.14
2023-11-18T02:48:08.520Z,41.09
2023-11-18T02:50:39.572Z,41.10
2023-11-18T02:53:07.014Z,41.07
2023-11-18T02:55:34.467Z,40.99
2023-11-18T02:58:06.544Z,40.99
2023-11-18T03:00:35.166Z,41.01
2023-11-18T03:03:04.096Z,40.97
2023-11-18T03:05:32.150Z,41.08
2023-11-18T03:07:59.856Z,41.20
2023-11-18T03:10:27.433Z,41.08
2023-11-18T03:12:55.437Z,41.19
2023-11-18T03:15:23.970Z,41.21
2023-11-18T03:17:53.198Z,41.18
2023-11-18T03:20:23.956Z,41.18
2023-11-18T03:22:52.782Z,41.13
2023-11-18T03:25:23.280Z,41.03
2023-11-18T03:27:50.909Z,41.15
2023-11-18T03:30:18.379Z,41.18
2023-11-18T03:32:46.677Z,41.27
2023-11-18T03:35:14.394Z,41.30
2023-11-18T03:37:43.929Z,41.19
2023-11-18T03:40:16.153Z,41.20
2023-11-18T03:42:44.551Z,41.22
2023-11-18T03:45:11.963Z,41.37
2023-11-18T03:47:39.788Z,41.23
2023-11-18T03:50:10.193Z,41.24
2023-11-18T03:52:39.418Z,41.29
2023-11-18T03:55:07.762Z,41.24
2023-11-18T03:57:35.472Z,41.33
2023-11-18T04:00:04.347Z,41.22
2023-11-18T04:02:37.690Z,41.39
2023-11-18T04:05:05.548Z,41.25
2023-11-18T04:07:33.136Z,41.34
2023-11-18T04:10:01.531Z,41.29
2023-11-18T04:12:28.955Z,41.18
2023-11-18T04:14:56.360Z,41.35
2023-11-18T04:17:29.007Z,41.31
2023-11-18T04:19:57.215Z,41.27
2023-11-18T04:22:25.202Z,41.17
2023-11-18T04:24:52.558Z,41.22
2023-11-18T04:27:19.896Z,41.16
2023-11-18T04:29:47.236Z,41.21
2023-11-18T04:32:15.137Z,41.20
2023-11-18T04:34:43.780Z,41.18
2023-11-18T04:37:11.409Z,41.14
2023-11-18T04:39:38.757Z,41.36
2023-11-18T04:42:06.151Z,41.20
2023-11-18T04:44:33.589Z,41.28
2023-11-18T04:47:02.478Z,41.14
2023-11-18T04:49:29.969Z,41.25
2023-11-18T04:51:58.173Z,41.39
2023-11-18T04:54:25.790Z,41.25
2023-11-18T04:56:53.484Z,41.17
2023-11-18T04:59:20.823Z,41.44
2023-11-18T05:01:48.218Z,41.37
2023-11-18T05:04:15.596Z,41.62
2023-11-18T05:06:42.949Z,41.43
2023-11-18T05:09:10.227Z,41.53
2023-11-18T05:11:37.646Z,41.27
2023-11-18T05:14:05.108Z,41.29
2023-11-18T05:16:32.568Z,41.33
2023-11-18T05:18:59.893Z,41.48
2023-11-18T05:21:27.183Z,41.67
2023-11-18T05:23:54.481Z,41.56
2023-11-18T05:26:21.891Z,41.54
2023-11-18T05:28:50.043Z,41.52
2023-11-18T05:31:17.799Z,41.58
2023-11-18T05:33:50.517Z,41.45
2023-11-18T05:36:17.847Z,41.28
2023-11-18T05:38:45.096Z,41.48
2023-11-18T05:41:17.956Z,41.42
2023-11-18T05:43:52.476Z,41.45
2023-11-18T05:46:24.043Z,41.25
2023-11-18T05:48:51.741Z,41.37
2023-11-18T05:51:24.218Z,41.23
2023-11-18T05:53:53.196Z,41.34
2023-11-18T05:56:24.051Z,41.43
2023-11-18T05:58:54.740Z,41.36
2023-11-18T06:01:23.309Z,41.36
2023-11-18T06:03:51.506Z,41.42
2023-11-18T06:06:22.157Z,41.57
2023-11-18T06:08:52.211Z,41.34
2023-11-18T06:11:20.525Z,41.47
2023-11-18T06:13:54.663Z,41.50
2023-11-18T06:16:23.806Z,41.37
2023-11-18T06:18:53.541Z,41.54
2023-11-18T06:21:25.588Z,41.50
2023-11-18T06:23:53.164Z,41.63
2023-11-18T06:26:20.635Z,41.40
2023-11-18T06:28:52.757Z,41.53
2023-11-18T06:31:25.315Z,41.57
2023-11-18T06:33:53.631Z,41.69
2023-11-18T06:36:27.643Z,41.81
2023-11-18T06:38:55.246Z,41.51
2023-11-18T06:41:40.766Z,41.51
2023-11-18T06:44:13.765Z,41.60
2023-11-18T06:46:41.727Z,41.58
2023-11-18T06:49:12.351Z,41.47
2023-11-18T06:51:40.094Z,41.49
2023-11-18T06:54:11.995Z,41.39
2023-11-18T06:56:45.282Z,41.57
2023-11-18T06:59:14.871Z,41.42
2023-11-18T07:01:46.869Z,41.60
2023-11-18T07:04:15.807Z,41.51
2023-11-18T07:06:44.945Z,41.48
2023-11-18T07:09:19.881Z,41.54
2023-11-18T07:11:52.725Z,41.61
2023-11-18T07:14:20.244Z,41.70
2023-11-18T07:16:48.013Z,41.67
2023-11-18T07:19:22.436Z,41.49
2023-11-18T07:21:50.927Z,41.62
2023-11-18T07:24:18.796Z,41.91
2023-11-18T07:26:46.759Z,41.73
2023-11-18T07:29:14.473Z,41.82
2023-11-18T07:31:42.040Z,41.85
2023-11-18T07:34:09.434Z,41.78
2023-11-18T07:36:36.784Z,41.84
2023-11-18T07:39:04.936Z,41.88
2023-11-18T07:41:33.740Z,41.87
2023-11-18T07:44:02.591Z,42.13
2023-11-18T07:46:32.544Z,41.87
2023-11-18T07:49:02.617Z,41.98
2023-11-18T07:51:30.255Z,42.11
2023-11-18T07:53:57.889Z,41.99
2023-11-18T07:56:25.400Z,41.94
2023-11-18T07:58:53.331Z,41.75
2023-11-18T08:01:22.739Z,41.79
2023-11-18T08:03:52.430Z,41.94
2023-11-18T08:06:20.131Z,42.03
2023-11-18T08:08:49.254Z,42.04
2023-11-18T08:11:18.306Z,41.82
2023-11-18T08:13:47.123Z,41.80
2023-11-18T08:16:15.890Z,41.75
2023-11-18T08:18:43.421Z,41.80
2023-11-18T08:21:10.785Z,41.73
2023-11-18T08:23:38.338Z,41.57
2023-11-18T08:26:07.119Z,41.74
2023-11-18T08:28:34.705Z,41.68
2023-11-18T08:31:03.489Z,41.82
2023-11-18T08:33:31.558Z,41.85
2023-11-18T08:35:58.967Z,41.79
2023-11-18T08:38:26.504Z,42.00
2023-11-18T08:40:54.009Z,42.11
2023-11-18T08:43:22.547Z,42.20
2023-11-18T08:45:54.094Z,42.27
2023-11-18T08:48:24.059Z,42.15
2023-11-18T08:50:52.755Z,42.16
2023-11-18T08:53:27.463Z,42.20
2023-11-18T08:55:57.911Z,42.35
2023-11-18T08:58:35.189Z,42.38
2023-11-18T09:01:14.624Z,42.32
2023-11-18T09:03:53.564Z,42.25
2023-11-18T09:06:29.644Z,42.35
2023-11-18T09:08:59.495Z,42.60
2023-11-18T09:11:34.050Z,42.68
2023-11-18T09:14:02.777Z,42.69
2023-11-18T09:16:31.046Z,42.75
2023-11-18T09:19:00.897Z,42.48
2023-11-18T09:21:30.577Z,42.46
2023-11-18T09:23:58.276Z,42.56
2023-11-18T09:26:27.680Z,42.43
2023-11-18T09:28:55.865Z,42.28
2023-11-18T09:31:23.292Z,42.03
2023-11-18T09:33:54.181Z,41.88
2023-11-18T09:36:23.910Z,41.84
2023-11-18T09:38:51.618Z,41.17
2023-11-18T09:41:19.670Z,41.48
2023-11-18T09:43:48.903Z,41.76
2023-11-18T09:46:34.750Z,41.76
2023-11-18T09:49:26.876Z,41.84
2023-11-18T09:51:59.351Z,41.09
2023-11-18T09:54:51.777Z,40.75
2023-11-18T09:57:27.434Z,43.11
2023-11-18T10:00:11.960Z,45.09
2023-11-18T10:02:42.794Z,43.33
2023-11-18T10:05:13.723Z,42.17
2023-11-18T10:07:43.401Z,41.18
2023-11-18T10:10:16.050Z,39.88
2023-11-18T10:12:53.524Z,39.06
2023-11-18T10:15:25.999Z,38.24
2023-11-18T10:18:23.525Z,37.64
2023-11-18T10:20:52.373Z,37.84
2023-11-18T10:23:22.127Z,37.46
2023-11-18T10:25:51.224Z,37.84
2023-11-18T10:28:33.779Z,37.71
2023-11-18T10:31:05.988Z,37.42
2023-11-18T10:33:38.411Z,37.33
2023-11-18T10:36:13.696Z,36.80
2023-11-18T10:38:50.620Z,36.66
2023-11-18T10:41:19.940Z,36.37
2023-11-18T10:43:49.517Z,35.82
2023-11-18T10:46:18.042Z,35.72
2023-11-18T10:48:50.937Z,35.66
2023-11-18T10:51:27.673Z,35.52
2023-11-18T10:53:59.947Z,35.41
2023-11-18T10:56:29.479Z,35.62
2023-11-18T10:59:07.617Z,35.82
2023-11-18T11:01:43.808Z,36.10
2023-11-18T11:04:11.587Z,35.60
2023-11-18T11:06:43.782Z,35.94
2023-11-18T11:09:16.918Z,35.71
2023-11-18T11:11:57.110Z,35.30
2023-11-18T11:14:30.918Z,35.50
2023-11-18T11:17:01.613Z,35.07
2023-11-18T11:19:45.971Z,35.04
2023-11-18T11:22:22.291Z,33.99
2023-11-18T11:24:52.485Z,33.60
2023-11-18T11:28:00.970Z,33.51
2023-11-18T11:30:41.217Z,34.07
2023-11-18T11:33:28.968Z,34.92
2023-11-18T11:35:58.708Z,35.63
2023-11-18T11:38:28.109Z,35.80
2023-11-18T11:40:56.416Z,35.77
2023-11-18T11:43:25.443Z,35.74
2023-11-18T11:45:54.050Z,36.05
2023-11-18T11:48:28.498Z,36.24
2023-11-18T11:51:21.388Z,36.41
2023-11-18T11:53:56.343Z,36.44
2023-11-18T11:56:39.316Z,36.62
2023-11-18T11:59:06.808Z,36.90
2023-11-18T12:01:38.813Z,37.16
2023-11-18T12:04:11.889Z,37.41
2023-11-18T12:06:43.627Z,37.62
2023-11-18T12:09:11.286Z,37.77
2023-11-18T12:11:40.769Z,37.53
2023-11-18T12:14:25.278Z,36.64
2023-11-18T12:17:07.913Z,36.05
2023-11-18T12:19:48.094Z,35.90
2023-11-18T12:22:20.561Z,36.54
2023-11-18T12:25:30.194Z,36.23
2023-11-18T12:28:00.146Z,35.85
2023-11-18T12:30:37.063Z,35.67
2023-11-18T12:33:20.331Z,35.99
2023-11-18T12:35:56.547Z,35.57
2023-11-18T12:38:58.495Z,35.48
2023-11-18T12:41:41.216Z,36.28
2023-11-18T12:44:38.157Z,36.63
2023-11-18T12:47:22.584Z,37.27
2023-11-18T12:49:56.170Z,38.17
2023-11-18T12:52:24.702Z,38.71
2023-11-18T12:54:57.780Z,38.94
2023-11-18T12:57:32.766Z,39.33
2023-11-18T13:00:02.008Z,39.56
2023-11-18T13:02:29.721Z,39.97
2023-11-18T13:04:58.912Z,39.98
2023-11-18T13:07:26.469Z,40.07
2023-11-18T13:09:55.630Z,40.30
2023-11-18T13:12:24.908Z,40.22
2023-11-18T13:14:52.845Z,40.18
2023-11-18T13:17:20.391Z,40.42
2023-11-18T13:19:49.102Z,40.70
2023-11-18T13:22:20.256Z,40.62
2023-11-18T13:24:47.893Z,40.82
2023-11-18T13:27:20.405Z,40.72
2023-11-18T13:29:54.208Z,40.19
2023-11-18T13:32:27.077Z,39.96
2023-11-18T13:34:55.092Z,40.07
2023-11-18T13:37:24.385Z,39.93
2023-11-18T13:39:59.425Z,39.97
2023-11-18T13:42:31.765Z,40.37
2023-11-18T13:45:09.351Z,40.94
2023-11-18T13:47:37.933Z,40.92
2023-11-18T13:50:09.956Z,41.12
2023-11-18T13:52:39.790Z,40.85
2023-11-18T13:55:18.144Z,41.16
2023-11-18T13:57:45.632Z,41.14
2023-11-18T14:00:17.238Z,41.20
2023-11-18T14:02:44.798Z,41.37
2023-11-18T14:05:20.626Z,41.32
2023-11-18T14:08:00.515Z,41.22
2023-11-18T14:10:29.102Z,41.18
2023-11-18T14:13:06.804Z,40.80
2023-11-18T14:15:37.162Z,41.35
2023-11-18T14:18:05.770Z,41.09
2023-11-18T14:20:33.081Z,41.08
2023-11-18T14:23:00.615Z,40.89
2023-11-18T14:25:28.516Z,40.93
2023-11-18T14:27:55.916Z,41.06
2023-11-18T14:30:25.605Z,41.04
2023-11-18T14:32:53.400Z,41.06
2023-11-18T14:35:21.863Z,40.85
2023-11-18T14:37:49.624Z,40.85
2023-11-18T14:40:17.399Z,41.05
2023-11-18T14:42:47.120Z,40.83
2023-11-18T14:45:15.690Z,40.78
2023-11-18T14:47:48.701Z,40.80
2023-11-18T14:50:20.057Z,40.94
2023-11-18T14:53:00.996Z,40.73
2023-11-18T14:55:30.023Z,40.66
2023-11-18T14:57:57.859Z,40.58
2023-11-18T15:00:29.097Z,40.69
2023-11-18T15:02:59.362Z,40.66
2023-11-18T15:05:28.783Z,40.75
2023-11-18T15:07:59.097Z,40.65
2023-11-18T15:10:27.669Z,40.57
2023-11-18T15:12:59.724Z,40.66
2023-11-18T15:15:35.827Z,40.34
2023-11-18T15:18:08.649Z,40.42
2023-11-18T15:23:11.583Z,40.53
2023-11-18T15:25:40.142Z,40.61
2023-11-18T15:28:10.941Z,40.46
2023-11-18T15:30:38.697Z,40.56
2023-11-18T15:33:09.517Z,40.58
2023-11-18T15:35:42.213Z,40.59
2023-11-18T15:38:10.295Z,40.48
2023-11-18T15:40:38.062Z,40.49
2023-11-18T15:43:09.075Z,40.30
2023-11-18T15:45:36.591Z,40.39
2023-11-18T15:48:08.661Z,40.52
2023-11-18T15:50:38.957Z,40.39
2023-11-18T15:53:15.070Z,40.67
2023-11-18T15:55:45.096Z,40.41
2023-11-18T15:58:12.716Z,40.40
2023-11-18T16:00:40.448Z,40.48
2023-11-18T16:03:10.134Z,40.56
2023-11-18T16:05:37.991Z,40.48
2023-11-18T16:08:08.228Z,40.52
2023-11-18T16:10:36.164Z,40.51
2023-11-18T16:13:03.670Z,40.67
2023-11-18T16:15:31.916Z,40.62
2023-11-18T16:18:01.728Z,40.61
2023-11-18T16:20:34.616Z,40.64
2023-11-18T16:23:05.857Z,40.61
2023-11-18T16:25:36.103Z,40.65
2023-11-18T16:28:04.401Z,40.79
2023-11-18T16:30:33.836Z,40.64
2023-11-18T16:33:03.078Z,40.73
2023-11-18T16:35:31.315Z,40.68
2023-11-18T16:38:01.664Z,40.60
2023-11-18T16:40:29.962Z,40.75
2023-11-18T16:43:00.098Z,40.68
2023-11-18T16:45:28.055Z,40.72
2023-11-18T16:47:56.061Z,40.63
2023-11-18T16:50:25.900Z,40.79
2023-11-18T16:52:54.994Z,40.80
2023-11-18T16:55:23.015Z,40.54
2023-11-18T16:57:54.080Z,40.88
2023-11-18T17:00:26.570Z,40.72
2023-11-18T17:02:57.980Z,40.97
2023-11-18T17:05:31.492Z,40.94
2023-11-18T17:08:00.794Z,41.01
2023-11-18T17:10:29.102Z,41.02
2023-11-18T17:12:58.920Z,41.09
2023-11-18T17:15:26.273Z,41.08
2023-11-18T17:18:00.551Z,41.49
2023-11-18T17:20:28.486Z,41.47
2023-11-18T17:22:55.990Z,41.64
2023-11-18T17:25:24.883Z,41.84
2023-11-18T17:27:54.421Z,41.79
2023-11-18T17:30:22.294Z,41.87
2023-11-18T17:32:56.067Z,41.81
2023-11-18T17:35:23.654Z,41.79
2023-11-18T17:37:51.069Z,41.87
2023-11-18T17:40:19.326Z,42.17
2023-11-18T17:42:46.696Z,42.70
2023-11-18T17:45:15.536Z,43.06
2023-11-18T17:47:44.648Z,43.75
2023-11-18T17:50:15.389Z,44.20
2023-11-18T17:52:53.707Z,44.29
2023-11-18T17:55:21.307Z,44.45
2023-11-18T17:57:48.949Z,44.70
2023-11-18T18:00:24.885Z,44.73
2023-11-18T18:02:53.794Z,44.98
2023-11-18T18:05:22.111Z,44.72
2023-11-18T18:07:49.647Z,44.91
2023-11-18T18:10:17.611Z,44.84
2023-11-18T18:12:47.958Z,45.10
2023-11-18T18:15:15.789Z,45.14
2023-11-18T18:17:44.093Z,44.71
2023-11-18T18:20:13.483Z,44.79
2023-11-18T18:22:42.462Z,44.49
2023-11-18T18:25:11.039Z,44.26
2023-11-18T18:27:39.460Z,44.29
2023-11-18T18:30:07.649Z,44.60
2023-11-18T18:32:35.455Z,44.68
2023-11-18T18:35:09.348Z,44.46
2023-11-18T18:37:36.715Z,44.26
2023-11-18T18:40:05.920Z,43.95
2023-11-18T18:42:33.597Z,43.85
2023-11-18T18:45:03.797Z,43.81
2023-11-18T18:47:34.074Z,43.83
2023-11-18T18:50:01.473Z,43.96
2023-11-18T18:52:28.742Z,44.17
2023-11-18T18:54:56.134Z,44.27
2023-11-18T18:57:23.595Z,44.41
2023-11-18T18:59:51.837Z,44.28
2023-11-18T19:02:19.358Z,44.26
2023-11-18T19:04:46.877Z,44.19
2023-11-18T19:07:14.381Z,44.20
2023-11-18T19:09:42.779Z,44.47
2023-11-18T19:12:10.219Z,44.44
2023-11-18T19:14:37.642Z,44.27
2023-11-18T19:17:05.332Z,44.29
2023-11-18T19:19:33.238Z,44.33
2023-11-18T19:22:01.896Z,44.30
2023-11-18T19:24:29.507Z,44.25
2023-11-18T19:26:57.645Z,44.09
2023-11-18T19:29:25.243Z,44.37
2023-11-18T19:31:52.624Z,44.13
2023-11-18T19:34:22.533Z,44.38
2023-11-18T19:36:49.831Z,44.32
2023-11-18T19:39:18.170Z,44.48
2023-11-18T19:41:45.689Z,44.31
2023-11-18T19:44:13.207Z,44.41
2023-11-18T19:46:40.609Z,44.41
2023-11-18T19:49:07.948Z,44.49
2023-11-18T19:51:35.362Z,44.38
2023-11-18T19:54:03.818Z,44.43
2023-11-18T19:56:31.270Z,44.42
2023-11-18T19:58:58.555Z,44.39
2023-11-18T20:01:26.206Z,44.41
2023-11-18T20:03:53.710Z,44.31
2023-11-18T20:06:21.016Z,44.29
2023-11-18T20:08:48.331Z,44.24
2023-11-18T20:11:15.645Z,44.25
2023-11-18T20:13:42.998Z,44.27
2023-11-18T20:16:10.789Z,44.41
2023-11-18T20:18:38.736Z,44.33
2023-11-18T20:21:06.787Z,44.18
2023-11-18T20:23:34.316Z,44.30
2023-11-18T20:26:01.982Z,44.31
2023-11-18T20:28:29.635Z,44.04
2023-11-18T20:30:57.053Z,43.87
2023-11-18T20:33:24.596Z,43.83
2023-11-18T20:35:53.282Z,43.44
2023-11-18T20:38:20.923Z,43.35
2023-11-18T20:40:49.152Z,43.45
2023-11-18T20:43:17.459Z,43.24
2023-11-18T20:45:45.584Z,43.35
2023-11-18T20:48:12.951Z,43.10
2023-11-18T20:50:40.270Z,43.13
2023-11-18T20:53:08.568Z,43.22
2023-11-18T20:55:36.074Z,43.19
2023-11-18T20:58:03.522Z,43.33
2023-11-18T21:00:31.572Z,43.01
2023-11-18T21:02:59.149Z,43.10
2023-11-18T21:05:27.247Z,43.17
2023-11-18T21:07:54.722Z,42.92
2023-11-18T21:10:22.820Z,43.00
2023-11-18T21:12:51.401Z,43.03
2023-11-18T21:15:20.908Z,43.11
2023-11-18T21:17:51.272Z,43.07
2023-11-18T21:20:20.118Z,42.99
2023-11-18T21:22:47.503Z,43.02
2023-11-18T21:25:16.779Z,42.92
2023-11-18T21:27:47.133Z,42.81
2023-11-18T21:30:14.767Z,42.87
2023-11-18T21:32:46.623Z,42.79
2023-11-18T21:35:24.227Z,42.92
2023-11-18T21:37:52.026Z,42.87
2023-11-18T21:40:20.565Z,42.87
2023-11-18T21:42:48.072Z,42.86
2023-11-18T21:45:15.595Z,42.93
2023-11-18T21:47:46.028Z,42.87
2023-11-18T21:50:15.504Z,42.82
2023-11-18T21:52:43.112Z,42.83
2023-11-18T21:55:10.462Z,42.76
2023-11-18T21:57:38.806Z,42.85
2023-11-18T22:00:12.575Z,42.81
2023-11-18T22:02:41.580Z,42.85
2023-11-18T22:05:09.685Z,42.83
2023-11-18T22:07:40.650Z,42.72
2023-11-18T22:10:11.855Z,42.60
2023-11-18T22:12:40.610Z,42.53
2023-11-18T22:15:08.748Z,42.41
2023-11-18T22:17:39.310Z,42.58
2023-11-18T22:20:13.910Z,42.45
2023-11-18T22:22:42.007Z,42.60
2023-11-18T22:25:10.466Z,42.41
2023-11-18T22:27:41.308Z,42.48
2023-11-18T22:30:13.010Z,42.41
2023-11-18T22:32:41.009Z,42.47
2023-11-18T22:35:09.257Z,42.46
2023-11-18T22:37:36.870Z,42.25
2023-11-18T22:40:16.759Z,42.30
2023-11-18T22:42:48.162Z,42.32
2023-11-18T22:45:20.802Z,42.32
2023-11-18T22:47:52.188Z,42.29
2023-11-18T22:50:24.662Z,42.35
2023-11-18T22:52:54.417Z,42.20
2023-11-18T22:55:23.220Z,42.35
2023-11-18T22:57:50.844Z,42.18
2023-11-18T23:00:38.670Z,42.26
2023-11-18T23:03:08.005Z,42.43
2023-11-18T23:05:37.297Z,42.41
2023-11-18T23:08:09.316Z,42.37
2023-11-18T23:10:38.899Z,42.35
2023-11-18T23:13:07.275Z,42.34
2023-11-18T23:15:40.128Z,42.28
2023-11-18T23:18:08.651Z,42.34
2023-11-18T23:20:39.191Z,42.35
2023-11-18T23:23:06.803Z,42.25
2023-11-18T23:25:34.961Z,42.31
2023-11-18T23:28:06.137Z,42.16
2023-11-18T23:30:33.720Z,42.30
2023-11-18T23:33:01.077Z,42.45
2023-11-18T23:35:29.538Z,42.50
2023-11-18T23:37:57.479Z,42.75
2023-11-18T23:40:26.182Z,42.62
2023-11-18T23:42:53.784Z,42.66
2023-11-18T23:45:21.601Z,42.81
2023-11-18T23:47:51.999Z,42.80
2023-11-18T23:50:20.617Z,42.43
2023-11-18T23:52:48.154Z,42.70
2023-11-18T23:55:15.676Z,42.69
2023-11-18T23:57:43.396Z,42.70
